Time,TemperatureF,DewpointF,PressureIn,WindDirection,WindDirectionDegrees,WindSpeedMPH,WindSpeedGustMPH,Humidity,HourlyPrecipIn,Conditions,Clouds,dailyrainin,SoftwareType,DateUTC
2013-04-05 00:03:00,42.7,34.7,29.90,SSW,203,8.5,8.5,73,0.00,,,0.00,WUHU216HW,2013-04-05 07:03:00,
2013-04-05 00:08:00,42.5,34.1,29.89,SSW,203,6.3,9.2,72,0.00,,,0.00,WUHU216HW,2013-04-05 07:08:00,
2013-04-05 00:13:00,42.1,34.1,29.89,SSW,203,9.8,9.8,73,0.00,,,0.00,WUHU216HW,2013-04-05 07:13:00,
2013-04-05 00:18:00,41.9,33.9,29.89,West,270,4.5,9.8,73,0.00,,,0.00,WUHU216HW,2013-04-05 07:18:00,
2013-04-05 00:23:00,41.8,33.8,29.89,WSW,248,3.4,11.2,73,0.00,,,0.00,WUHU216HW,2013-04-05 07:23:00,
2013-04-05 00:28:00,41.6,33.6,29.89,WSW,248,4.5,11.2,73,0.00,,,0.00,WUHU216HW,2013-04-05 07:28:00,
2013-04-05 00:33:00,41.4,34.0,29.90,WSW,248,10.7,13.0,75,0.00,,,0.00,WUHU216HW,2013-04-05 07:33:00,
2013-04-05 00:38:00,41.2,33.5,29.90,WNW,293,6.3,13.0,74,0.00,,,0.00,WUHU216HW,2013-04-05 07:38:00,
2013-04-05 00:43:00,41.0,33.3,29.90,West,270,9.2,11.0,74,0.00,,,0.00,WUHU216HW,2013-04-05 07:43:00,
2013-04-05 00:48:00,40.9,33.5,29.90,West,270,9.6,11.0,75,0.00,,,0.00,WUHU216HW,2013-04-05 07:48:00,
2013-04-05 00:53:00,40.9,33.5,29.90,West,270,8.5,10.7,75,0.00,,,0.00,WUHU216HW,2013-04-05 07:53:00,
2013-04-05 00:58:00,40.7,33.3,29.90,SW,225,7.2,10.7,75,0.00,,,0.00,WUHU216HW,2013-04-05 07:58:00,
2013-04-05 01:03:00,40.7,33.3,29.90,West,270,2.5,11.4,75,0.00,,,0.00,WUHU216HW,2013-04-05 08:03:00,
2013-04-05 01:08:00,40.5,33.1,29.91,SW,225,4.3,11.4,75,0.00,,,0.00,WUHU216HW,2013-04-05 08:08:00,
2013-04-05 01:13:00,40.5,33.1,29.91,SW,225,4.3,8.5,75,0.00,,,0.00,WUHU216HW,2013-04-05 08:13:00,
2013-04-05 01:18:00,40.3,32.9,29.91,West,270,3.4,8.5,75,0.00,,,0.00,WUHU216HW,2013-04-05 08:18:00,
2013-04-05 01:23:00,40.3,32.9,29.91,SW,225,5.4,5.4,75,0.00,,,0.00,WUHU216HW,2013-04-05 08:23:00,
2013-04-05 01:29:00,40.1,32.8,29.91,South,180,3.1,5.4,75,0.00,,,0.00,WUHU216HW,2013-04-05 08:29:00,
2013-04-05 01:34:00,40.1,32.8,29.91,WSW,248,3.1,6.7,75,0.00,,,0.00,WUHU216HW,2013-04-05 08:34:00,
2013-04-05 01:39:00,40.0,32.7,29.91,West,270,2.2,6.7,75,0.00,,,0.00,WUHU216HW,2013-04-05 08:39:00,
2013-04-05 01:44:00,40.0,32.9,29.91,WSW,248,3.4,6.7,76,0.00,,,0.00,WUHU216HW,2013-04-05 08:44:00,
2013-04-05 01:49:00,40.0,32.9,29.91,WSW,248,5.8,7.8,76,0.00,,,0.00,WUHU216HW,2013-04-05 08:49:00,
2013-04-05 01:54:00,40.0,32.9,29.91,SW,225,4.5,7.8,76,0.00,,,0.00,WUHU216HW,2013-04-05 08:54:00,
2013-04-05 01:59:00,40.0,32.7,29.91,West,270,2.9,7.6,75,0.00,,,0.00,WUHU216HW,2013-04-05 08:59:00,
2013-04-05 02:04:00,40.0,32.9,29.91,WSW,248,2.5,7.6,76,0.00,,,0.00,WUHU216HW,2013-04-05 09:04:00,
2013-04-05 02:09:00,40.0,32.9,29.91,WSW,248,5.4,5.4,76,0.00,,,0.00,WUHU216HW,2013-04-05 09:09:00,
2013-04-05 02:14:00,40.0,33.3,29.91,WSW,248,2.7,5.4,77,0.00,,,0.00,WUHU216HW,2013-04-05 09:14:00,
2013-04-05 02:19:00,40.0,33.3,29.91,West,270,5.4,5.4,77,0.00,,,0.00,WUHU216HW,2013-04-05 09:19:00,
2013-04-05 02:24:00,39.8,33.1,29.91,WSW,248,8.1,8.1,77,0.00,,,0.00,WUHU216HW,2013-04-05 09:24:00,
2013-04-05 02:30:00,39.8,33.1,29.91,South,180,4.7,8.1,77,0.00,,,0.00,WUHU216HW,2013-04-05 09:30:00,
2013-04-05 02:35:00,39.6,33.3,29.91,SW,225,6.3,7.6,78,0.00,,,0.00,WUHU216HW,2013-04-05 09:35:00,
2013-04-05 02:40:00,39.6,33.3,29.91,WSW,248,4.7,6.3,78,0.00,,,0.00,WUHU216HW,2013-04-05 09:40:00,
2013-04-05 02:45:00,39.4,33.1,29.91,West,270,2.2,9.2,78,0.00,,,0.00,WUHU216HW,2013-04-05 09:45:00,
2013-04-05 02:50:00,39.4,33.1,29.91,South,180,1.1,9.2,78,0.00,,,0.00,WUHU216HW,2013-04-05 09:50:00,
2013-04-05 02:55:00,39.4,33.1,29.91,SSE,158,0.0,6.5,78,0.00,,,0.00,WUHU216HW,2013-04-05 09:55:00,
2013-04-05 03:00:00,39.4,33.1,29.91,East,90,0.0,2.5,78,0.00,,,0.00,WUHU216HW,2013-04-05 10:00:00,
2013-04-05 03:05:00,39.6,33.3,29.91,NE,45,0.9,1.1,78,0.00,,,0.00,WUHU216HW,2013-04-05 10:05:00,
2013-04-05 03:10:00,39.6,33.3,29.91,ENE,68,1.1,1.6,78,0.00,,,0.00,WUHU216HW,2013-04-05 10:10:00,
2013-04-05 03:15:00,39.8,33.5,29.91,NE,45,1.1,2.2,78,0.00,,,0.00,WUHU216HW,2013-04-05 10:15:00,
2013-04-05 03:20:00,39.8,33.5,29.91,ESE,113,1.6,2.2,78,0.00,,,0.00,WUHU216HW,2013-04-05 10:20:00,
2013-04-05 03:25:00,39.8,33.5,29.91,SE,135,0.4,1.8,78,0.00,,,0.00,WUHU216HW,2013-04-05 10:25:00,
2013-04-05 03:30:00,39.8,33.5,29.91,WNW,293,1.8,1.8,78,0.00,,,0.00,WUHU216HW,2013-04-05 10:30:00,
2013-04-05 03:35:00,39.6,32.9,29.91,WSW,248,6.3,6.3,77,0.00,,,0.00,WUHU216HW,2013-04-05 10:35:00,
2013-04-05 03:40:00,39.4,33.1,29.91,WSW,248,2.5,6.3,78,0.00,,,0.00,WUHU216HW,2013-04-05 10:40:00,
2013-04-05 03:45:00,39.8,33.5,29.91,SW,225,5.1,12.1,78,0.00,,,0.00,WUHU216HW,2013-04-05 10:45:00,
2013-04-05 03:50:00,40.0,33.3,29.91,WSW,248,4.0,12.1,77,0.00,,,0.00,WUHU216HW,2013-04-05 10:50:00,
2013-04-05 03:55:00,40.1,33.5,29.91,South,180,3.6,6.3,77,0.00,,,0.00,WUHU216HW,2013-04-05 10:55:00,
2013-04-05 04:00:00,40.3,33.7,29.91,SSW,203,4.3,5.6,77,0.00,,,0.00,WUHU216HW,2013-04-05 11:00:00,
2013-04-05 04:05:00,40.3,33.7,29.91,SSW,203,3.4,5.4,77,0.00,,,0.00,WUHU216HW,2013-04-05 11:05:00,
2013-04-05 04:10:00,40.3,33.7,29.91,SSW,203,7.6,7.6,77,0.00,,,0.00,WUHU216HW,2013-04-05 11:10:00,
2013-04-05 04:15:00,40.3,33.7,29.92,South,180,4.5,8.3,77,0.00,,,0.00,WUHU216HW,2013-04-05 11:15:00,
2013-04-05 04:20:00,40.1,33.5,29.92,SSW,203,4.0,8.3,77,0.00,,,0.00,WUHU216HW,2013-04-05 11:20:00,
2013-04-05 04:25:00,40.1,33.5,29.92,SW,225,2.7,7.6,77,0.00,,,0.00,WUHU216HW,2013-04-05 11:25:00,
2013-04-05 04:30:00,40.1,33.5,29.92,West,270,3.4,7.6,77,0.00,,,0.00,WUHU216HW,2013-04-05 11:30:00,
2013-04-05 04:35:00,40.0,33.3,29.92,SW,225,2.5,7.2,77,0.00,,,0.00,WUHU216HW,2013-04-05 11:35:00,
2013-04-05 04:40:00,40.0,33.7,29.92,SW,225,7.6,8.5,78,0.00,,,0.00,WUHU216HW,2013-04-05 11:40:00,
2013-04-05 04:45:00,39.8,33.1,29.92,SW,225,7.6,8.5,77,0.00,,,0.00,WUHU216HW,2013-04-05 11:45:00,
2013-04-05 04:50:00,40.0,33.7,29.92,WSW,248,4.9,8.5,78,0.00,,,0.00,WUHU216HW,2013-04-05 11:50:00,
2013-04-05 04:55:00,40.0,33.3,29.92,SW,225,3.6,9.8,77,0.00,,,0.00,WUHU216HW,2013-04-05 11:55:00,
2013-04-05 05:00:00,40.0,33.3,29.92,SW,225,7.8,10.5,77,0.00,,,0.00,WUHU216HW,2013-04-05 12:00:00,
2013-04-05 05:05:00,40.0,33.7,29.92,SW,225,6.3,10.5,78,0.00,,,0.00,WUHU216HW,2013-04-05 12:05:00,
2013-04-05 05:11:00,40.0,33.3,29.93,WSW,248,3.4,8.5,77,0.00,,,0.00,WUHU216HW,2013-04-05 12:11:00,
2013-04-05 05:16:00,40.1,33.5,29.93,WSW,248,5.8,7.6,77,0.00,,,0.00,WUHU216HW,2013-04-05 12:16:00,
2013-04-05 05:21:00,40.1,33.5,29.92,South,180,4.0,7.8,77,0.00,,,0.00,WUHU216HW,2013-04-05 12:21:00,
2013-04-05 05:26:00,40.0,33.3,29.92,SSW,203,2.2,7.8,77,0.00,,,0.00,WUHU216HW,2013-04-05 12:26:00,
2013-04-05 05:31:00,40.0,33.3,29.92,SW,225,5.4,5.4,77,0.00,,,0.00,WUHU216HW,2013-04-05 12:31:00,
2013-04-05 05:36:00,39.8,33.1,29.93,SSW,203,2.2,5.4,77,0.00,,,0.00,WUHU216HW,2013-04-05 12:36:00,
2013-04-05 05:41:00,39.8,33.1,29.93,SSW,203,3.6,4.7,77,0.00,,,0.00,WUHU216HW,2013-04-05 12:41:00,
2013-04-05 05:46:00,39.8,33.1,29.92,SSE,158,5.6,5.6,77,0.00,,,0.00,WUHU216HW,2013-04-05 12:46:00,
2013-04-05 05:51:00,40.0,33.3,29.92,SSE,158,1.6,5.6,77,0.00,,,0.00,WUHU216HW,2013-04-05 12:51:00,
2013-04-05 05:56:00,39.8,33.1,29.92,SSE,158,0.9,2.5,77,0.00,,,0.00,WUHU216HW,2013-04-05 12:56:00,
2013-04-05 06:01:00,39.8,33.5,29.92,SW,225,1.8,4.7,78,0.00,,,0.00,WUHU216HW,2013-04-05 13:01:00,
2013-04-05 06:06:00,39.8,33.5,29.92,SW,225,5.8,5.8,78,0.00,,,0.00,WUHU216HW,2013-04-05 13:06:00,
2013-04-05 06:12:00,39.6,33.3,29.92,SSW,203,4.5,5.8,78,0.00,,,0.00,WUHU216HW,2013-04-05 13:12:00,
2013-04-05 06:17:00,39.6,32.9,29.92,South,180,1.1,4.7,77,0.00,,,0.00,WUHU216HW,2013-04-05 13:17:00,
2013-04-05 06:22:00,39.6,32.9,29.92,SE,135,0.9,3.4,77,0.00,,,0.00,WUHU216HW,2013-04-05 13:22:00,
2013-04-05 06:27:00,39.6,32.9,29.92,ESE,113,1.1,3.4,77,0.00,,,0.00,WUHU216HW,2013-04-05 13:27:00,
2013-04-05 06:32:00,39.8,33.1,29.92,East,90,3.6,3.6,77,0.00,,,0.00,WUHU216HW,2013-04-05 13:32:00,
2013-04-05 06:37:00,39.8,33.1,29.92,ESE,113,5.4,5.4,77,0.00,,,0.00,WUHU216HW,2013-04-05 13:37:00,
2013-04-05 06:42:00,39.8,33.1,29.92,SSE,158,5.4,5.4,77,0.00,,,0.00,WUHU216HW,2013-04-05 13:42:00,
2013-04-05 06:47:00,40.0,33.3,29.92,SE,135,2.5,5.4,77,0.00,,,0.00,WUHU216HW,2013-04-05 13:47:00,
2013-04-05 06:52:00,40.0,33.3,29.93,ESE,113,3.6,5.1,77,0.00,,,0.00,WUHU216HW,2013-04-05 13:52:00,
2013-04-05 06:57:00,40.0,33.3,29.93,SSE,158,3.4,5.1,77,0.00,,,0.00,WUHU216HW,2013-04-05 13:57:00,
2013-04-05 07:02:00,40.1,33.5,29.93,South,180,2.7,6.5,77,0.00,,,0.00,WUHU216HW,2013-04-05 14:02:00,
2013-04-05 07:07:00,40.1,33.5,29.93,WSW,248,4.0,6.5,77,0.00,,,0.00,WUHU216HW,2013-04-05 14:07:00,
2013-04-05 07:12:00,40.1,33.5,29.93,South,180,2.7,6.3,77,0.00,,,0.00,WUHU216HW,2013-04-05 14:12:00,
2013-04-05 07:17:00,40.3,33.7,29.93,SSW,203,3.4,9.2,77,0.00,,,0.00,WUHU216HW,2013-04-05 14:17:00,
2013-04-05 07:22:00,40.3,33.7,29.94,SSE,158,6.9,9.2,77,0.00,,,0.00,WUHU216HW,2013-04-05 14:22:00,
2013-04-05 07:28:00,40.3,33.7,29.94,SSE,158,2.5,7.6,77,0.00,,,0.00,WUHU216HW,2013-04-05 14:28:00,
2013-04-05 07:33:00,40.3,33.7,29.94,SSW,203,9.2,10.3,77,0.00,,,0.00,WUHU216HW,2013-04-05 14:33:00,
2013-04-05 07:38:00,40.5,33.9,29.94,SSW,203,4.7,15.4,77,0.00,,,0.00,WUHU216HW,2013-04-05 14:38:00,
2013-04-05 07:43:00,40.5,33.9,29.94,SSW,203,4.9,15.4,77,0.00,,,0.00,WUHU216HW,2013-04-05 14:43:00,
2013-04-05 07:48:00,40.7,33.9,29.94,SSW,203,5.6,10.5,77,0.00,,,0.00,WUHU216HW,2013-04-05 14:48:00,
2013-04-05 07:53:00,40.7,33.9,29.94,SW,225,5.4,8.9,77,0.00,,,0.00,WUHU216HW,2013-04-05 14:53:00,
2013-04-05 07:58:00,40.9,33.9,29.94,SE,135,3.1,8.9,76,0.00,,,0.00,WUHU216HW,2013-04-05 14:58:00,
2013-04-05 08:03:00,41.0,34.0,29.94,SSW,203,5.4,7.6,76,0.00,,,0.00,WUHU216HW,2013-04-05 15:03:00,
2013-04-05 08:08:00,41.4,34.0,29.95,SSW,203,5.8,10.1,75,0.00,,,0.00,WUHU216HW,2013-04-05 15:08:00,
2013-04-05 08:13:00,41.6,34.2,29.95,SW,225,4.7,10.1,75,0.00,,,0.00,WUHU216HW,2013-04-05 15:13:00,
2013-04-05 08:18:00,41.8,34.0,29.95,SSW,203,7.8,10.1,74,0.00,,,0.00,WUHU216HW,2013-04-05 15:18:00,
2013-04-05 08:23:00,41.9,34.2,29.95,WSW,248,7.8,9.4,74,0.00,,,0.00,WUHU216HW,2013-04-05 15:23:00,
2013-04-05 08:28:00,41.9,34.2,29.95,SW,225,4.0,7.8,74,0.00,,,0.00,WUHU216HW,2013-04-05 15:28:00,
2013-04-05 08:33:00,41.9,34.2,29.95,South,180,6.9,7.6,74,0.00,,,0.00,WUHU216HW,2013-04-05 15:33:00,
2013-04-05 08:39:00,42.1,34.4,29.95,SW,225,4.0,7.4,74,0.00,,,0.00,WUHU216HW,2013-04-05 15:39:00,
2013-04-05 08:44:00,42.3,34.6,29.95,SW,225,1.8,9.2,74,0.00,,,0.00,WUHU216HW,2013-04-05 15:44:00,
2013-04-05 08:49:00,42.8,35.1,29.95,South,180,2.5,9.2,74,0.00,,,0.00,WUHU216HW,2013-04-05 15:49:00,
2013-04-05 08:54:00,43.2,35.2,29.95,SSW,203,3.8,5.6,73,0.00,,,0.00,WUHU216HW,2013-04-05 15:54:00,
2013-04-05 08:59:00,43.6,35.2,29.95,SW,225,3.4,5.6,72,0.00,,,0.00,WUHU216HW,2013-04-05 15:59:00,
2013-04-05 09:04:00,44.3,36.2,29.95,SSW,203,6.0,6.0,73,0.00,,,0.00,WUHU216HW,2013-04-05 16:04:00,
2013-04-05 09:09:00,45.0,36.6,29.95,SE,135,1.6,6.3,72,0.00,,,0.00,WUHU216HW,2013-04-05 16:09:00,
2013-04-05 09:14:00,45.5,37.1,29.95,WSW,248,5.6,6.7,72,0.00,,,0.00,WUHU216HW,2013-04-05 16:14:00,
2013-04-05 09:19:00,46.1,36.1,29.95,SW,225,7.6,8.1,68,0.00,,,0.00,WUHU216HW,2013-04-05 16:19:00,
2013-04-05 09:24:00,46.8,36.5,29.95,West,270,6.0,8.1,67,0.00,,,0.00,WUHU216HW,2013-04-05 16:24:00,
2013-04-05 09:29:00,47.0,35.8,29.96,West,270,9.2,12.8,65,0.00,,,0.00,WUHU216HW,2013-04-05 16:29:00,
2013-04-05 09:34:00,47.0,35.8,29.96,SW,225,3.8,12.8,65,0.00,,,0.00,WUHU216HW,2013-04-05 16:34:00,
2013-04-05 09:39:00,47.2,36.4,29.96,WSW,248,5.4,10.5,66,0.00,,,0.00,WUHU216HW,2013-04-05 16:39:00,
2013-04-05 09:44:00,47.2,36.4,29.96,South,180,10.5,10.5,66,0.00,,,0.00,WUHU216HW,2013-04-05 16:44:00,
2013-04-05 09:49:00,47.5,36.7,29.96,SW,225,2.7,10.5,66,0.00,,,0.00,WUHU216HW,2013-04-05 16:49:00,
2013-04-05 09:54:00,47.7,36.1,29.96,SSW,203,12.1,12.1,64,0.00,,,0.00,WUHU216HW,2013-04-05 16:54:00,
2013-04-05 09:59:00,47.9,36.3,29.96,SSW,203,8.5,12.1,64,0.00,,,0.00,WUHU216HW,2013-04-05 16:59:00,
2013-04-05 10:04:00,47.9,36.3,29.96,South,180,7.2,12.3,64,0.00,,,0.00,WUHU216HW,2013-04-05 17:04:00,
2013-04-05 10:09:00,48.1,35.6,29.96,West,270,10.1,12.3,62,0.00,,,0.00,WUHU216HW,2013-04-05 17:09:00,
2013-04-05 10:14:00,48.4,36.0,29.96,SW,225,9.2,11.4,62,0.00,,,0.00,WUHU216HW,2013-04-05 17:14:00,
2013-04-05 10:20:00,48.4,36.0,29.96,WSW,248,6.3,9.8,62,0.00,,,0.00,WUHU216HW,2013-04-05 17:20:00,
2013-04-05 10:25:00,48.4,35.6,29.96,SW,225,13.4,22.4,61,0.00,,,0.00,WUHU216HW,2013-04-05 17:25:00,
2013-04-05 10:30:00,48.2,35.5,29.96,SW,225,9.2,22.4,61,0.00,,,0.00,WUHU216HW,2013-04-05 17:30:00,
2013-04-05 10:35:00,48.2,35.5,29.96,West,270,8.1,17.2,61,0.00,,,0.00,WUHU216HW,2013-04-05 17:35:00,
2013-04-05 10:40:00,48.2,35.5,29.96,SSW,203,10.1,12.8,61,0.00,,,0.00,WUHU216HW,2013-04-05 17:40:00,
2013-04-05 10:45:00,48.1,35.6,29.96,SSW,203,6.9,17.2,62,0.00,,,0.00,WUHU216HW,2013-04-05 17:45:00,
2013-04-05 10:50:00,48.2,35.8,29.96,SW,225,3.1,17.2,62,0.00,,,0.00,WUHU216HW,2013-04-05 17:50:00,
2013-04-05 10:55:00,49.0,36.6,29.96,WSW,248,6.9,12.8,62,0.00,,,0.00,WUHU216HW,2013-04-05 17:55:00,
2013-04-05 11:00:00,49.3,35.7,29.96,West,270,10.3,13.4,59,0.00,,,0.00,WUHU216HW,2013-04-05 18:00:00,
2013-04-05 11:05:00,49.7,36.4,29.96,SSW,203,9.6,13.4,60,0.00,,,0.00,WUHU216HW,2013-04-05 18:05:00,
2013-04-05 11:10:00,49.9,35.6,29.96,SSE,158,8.1,12.8,58,0.00,,,0.00,WUHU216HW,2013-04-05 18:10:00,
2013-04-05 11:15:00,49.9,35.6,29.96,SSW,203,6.9,17.4,58,0.00,,,0.00,WUHU216HW,2013-04-05 18:15:00,
2013-04-05 11:20:00,50.0,34.9,29.96,SW,225,12.8,17.4,56,0.00,,,0.00,WUHU216HW,2013-04-05 18:20:00,
2013-04-05 11:25:00,49.9,34.7,29.96,WSW,248,7.6,12.8,56,0.00,,,0.00,WUHU216HW,2013-04-05 18:25:00,
2013-04-05 11:30:00,50.0,34.9,29.96,West,270,8.5,10.5,56,0.00,,,0.00,WUHU216HW,2013-04-05 18:30:00,
2013-04-05 11:36:00,50.2,35.1,29.96,WSW,248,10.3,11.4,56,0.00,,,0.00,WUHU216HW,2013-04-05 18:36:00,
2013-04-05 11:41:00,50.6,34.9,29.96,WNW,293,5.8,11.4,55,0.00,,,0.00,WUHU216HW,2013-04-05 18:41:00,
2013-04-05 11:46:00,50.8,35.1,29.96,WSW,248,9.6,10.5,55,0.00,,,0.00,WUHU216HW,2013-04-05 18:46:00,
2013-04-05 11:51:00,50.9,35.3,29.96,WSW,248,11.4,11.4,55,0.00,,,0.00,WUHU216HW,2013-04-05 18:51:00,
2013-04-05 11:56:00,51.1,35.5,29.96,SSW,203,5.1,11.4,55,0.00,,,0.00,WUHU216HW,2013-04-05 18:56:00,
2013-04-05 12:01:00,51.1,35.5,29.96,West,270,15.4,15.4,55,0.00,,,0.00,WUHU216HW,2013-04-05 19:01:00,
2013-04-05 12:06:00,50.6,34.5,29.96,WNW,293,7.4,15.4,54,0.00,,,0.00,WUHU216HW,2013-04-05 19:06:00,
2013-04-05 12:11:00,50.0,34.0,29.96,NNW,338,3.4,13.0,54,0.00,,,0.00,WUHU216HW,2013-04-05 19:11:00,
2013-04-05 12:16:00,49.7,34.1,29.96,SW,225,6.5,11.0,55,0.00,,,0.00,WUHU216HW,2013-04-05 19:16:00,
2013-04-05 12:21:00,49.9,34.3,29.96,West,270,11.4,11.4,55,0.00,,,0.00,WUHU216HW,2013-04-05 19:21:00,
2013-04-05 12:27:00,49.3,34.2,29.96,WSW,248,12.1,12.1,56,0.00,,,0.00,WUHU216HW,2013-04-05 19:27:00,
2013-04-05 12:32:00,49.3,34.8,29.96,WNW,293,7.6,12.1,57,0.00,,,0.00,WUHU216HW,2013-04-05 19:32:00,
2013-04-05 12:37:00,49.5,34.8,29.96,WSW,248,17.0,17.0,57,0.00,,,0.00,WUHU216HW,2013-04-05 19:37:00,
2013-04-05 12:42:00,49.5,34.4,29.96,WSW,248,7.8,17.0,56,0.00,,,0.00,WUHU216HW,2013-04-05 19:42:00,
2013-04-05 12:47:00,49.5,34.4,29.96,West,270,3.4,13.2,56,0.00,,,0.00,WUHU216HW,2013-04-05 19:47:00,
2013-04-05 12:52:00,49.3,33.8,29.96,West,270,10.1,10.1,55,0.00,,,0.00,WUHU216HW,2013-04-05 19:52:00,
2013-04-05 12:57:00,49.5,33.5,29.96,SSW,203,10.1,10.1,54,0.00,,,0.00,WUHU216HW,2013-04-05 19:57:00,
2013-04-05 13:02:00,50.0,34.5,29.95,SW,225,3.4,10.1,55,0.00,,,0.00,WUHU216HW,2013-04-05 20:02:00,
2013-04-05 13:07:00,50.8,35.1,29.95,SW,225,6.3,8.7,55,0.00,,,0.00,WUHU216HW,2013-04-05 20:07:00,
2013-04-05 13:12:00,50.9,34.8,29.96,WSW,248,6.9,9.8,54,0.00,,,0.00,WUHU216HW,2013-04-05 20:12:00,
2013-04-05 13:17:00,50.8,34.2,29.95,WSW,248,9.2,9.8,53,0.00,,,0.00,WUHU216HW,2013-04-05 20:17:00,
2013-04-05 13:22:00,50.6,33.6,29.95,WSW,248,7.2,9.8,52,0.00,,,0.00,WUHU216HW,2013-04-05 20:22:00,
2013-04-05 13:27:00,50.8,33.8,29.95,SSW,203,3.6,9.6,52,0.00,,,0.00,WUHU216HW,2013-04-05 20:27:00,
2013-04-05 13:32:00,51.1,33.7,29.94,West,270,12.8,15.9,51,0.00,,,0.00,WUHU216HW,2013-04-05 20:32:00,
2013-04-05 13:37:00,50.9,33.5,29.94,West,270,13.6,15.9,51,0.00,,,0.00,WUHU216HW,2013-04-05 20:37:00,
2013-04-05 13:42:00,50.9,33.5,29.94,NW,315,8.7,13.6,51,0.00,,,0.00,WUHU216HW,2013-04-05 20:42:00,
2013-04-05 13:47:00,50.9,33.0,29.94,West,270,8.9,11.6,50,0.00,,,0.00,WUHU216HW,2013-04-05 20:47:00,
2013-04-05 13:52:00,50.9,33.5,29.94,WSW,248,4.3,11.6,51,0.00,,,0.00,WUHU216HW,2013-04-05 20:52:00,
2013-04-05 13:57:00,50.9,33.5,29.94,South,180,10.1,13.0,51,0.00,,,0.00,WUHU216HW,2013-04-05 20:57:00,
2013-04-05 14:02:00,50.9,33.0,29.94,SW,225,9.8,15.4,50,0.00,,,0.00,WUHU216HW,2013-04-05 21:02:00,
2013-04-05 14:07:00,51.1,33.2,29.94,WSW,248,7.2,15.4,50,0.00,,,0.00,WUHU216HW,2013-04-05 21:07:00,
2013-04-05 14:12:00,51.3,33.4,29.94,West,270,11.9,12.5,50,0.00,,,0.00,WUHU216HW,2013-04-05 21:12:00,
2013-04-05 14:17:00,51.7,33.7,29.94,SW,225,6.3,12.5,50,0.00,,,0.00,WUHU216HW,2013-04-05 21:17:00,
2013-04-05 14:22:00,51.8,33.3,29.94,WNW,293,7.2,10.3,49,0.00,,,0.00,WUHU216HW,2013-04-05 21:22:00,
2013-04-05 14:27:00,52.2,34.2,29.94,WSW,248,8.9,9.8,50,0.00,,,0.00,WUHU216HW,2013-04-05 21:27:00,
2013-04-05 14:32:00,52.6,34.5,29.94,WNW,293,8.7,10.3,50,0.00,,,0.00,WUHU216HW,2013-04-05 21:32:00,
2013-04-05 14:37:00,52.6,33.9,29.94,WSW,248,7.2,10.3,49,0.00,,,0.00,WUHU216HW,2013-04-05 21:37:00,
2013-04-05 14:42:00,52.6,35.4,29.94,West,270,5.1,14.8,52,0.00,,,0.00,WUHU216HW,2013-04-05 21:42:00,
2013-04-05 14:47:00,52.9,35.7,29.94,West,270,8.5,10.1,52,0.00,,,0.00,WUHU216HW,2013-04-05 21:47:00,
2013-04-05 14:52:00,53.6,35.9,29.94,West,270,6.5,11.4,51,0.00,,,0.00,WUHU216HW,2013-04-05 21:52:00,
2013-04-05 14:57:00,54.0,35.8,29.95,WSW,248,11.0,11.4,50,0.00,,,0.00,WUHU216HW,2013-04-05 21:57:00,
2013-04-05 15:02:00,53.5,36.3,29.95,WSW,248,7.4,11.6,52,0.00,,,0.00,WUHU216HW,2013-04-05 22:02:00,
2013-04-05 15:07:00,52.2,36.9,29.96,SW,225,9.8,11.6,56,0.00,,,0.00,WUHU216HW,2013-04-05 22:07:00,
2013-04-05 15:12:00,51.7,36.8,29.95,SSW,203,7.4,10.5,57,0.00,,,0.00,WUHU216HW,2013-04-05 22:12:00,
2013-04-05 15:17:00,51.5,36.6,29.95,WSW,248,6.0,9.6,57,0.00,,,0.00,WUHU216HW,2013-04-05 22:17:00,
2013-04-05 15:23:00,52.0,36.7,29.95,SSW,203,6.5,8.3,56,0.00,,,0.00,WUHU216HW,2013-04-05 22:23:00,
2013-04-05 15:28:00,52.6,37.3,29.95,SW,225,6.5,11.2,56,0.00,,,0.00,WUHU216HW,2013-04-05 22:28:00,
2013-04-05 15:33:00,52.9,37.1,29.95,SSW,203,8.7,11.2,55,0.00,,,0.00,WUHU216HW,2013-04-05 22:33:00,
2013-04-05 15:38:00,52.9,37.1,29.95,SSW,203,3.4,8.7,55,0.00,,,0.00,WUHU216HW,2013-04-05 22:38:00,
2013-04-05 15:43:00,52.9,37.1,29.95,SW,225,8.1,8.1,55,0.00,,,0.00,WUHU216HW,2013-04-05 22:43:00,
2013-04-05 15:48:00,52.4,36.6,29.95,WNW,293,8.5,8.5,55,0.00,,,0.00,WUHU216HW,2013-04-05 22:48:00,
2013-04-05 15:53:00,51.1,38.1,29.96,SW,225,7.8,11.6,61,0.00,,,0.00,WUHU216HW,2013-04-05 22:53:00,
2013-04-05 15:58:00,49.5,37.0,29.96,WSW,248,2.9,11.6,62,0.01,,,0.01,WUHU216HW,2013-04-05 22:58:00,
2013-04-05 16:03:00,47.9,36.3,29.96,WSW,248,2.0,7.8,64,0.02,,,0.02,WUHU216HW,2013-04-05 23:03:00,
2013-04-05 16:08:00,47.2,36.7,29.95,WSW,248,2.5,4.3,67,0.03,,,0.03,WUHU216HW,2013-04-05 23:08:00,
2013-04-05 16:13:00,46.6,37.0,29.96,WSW,248,3.6,4.7,69,0.03,,,0.03,WUHU216HW,2013-04-05 23:13:00,
2013-04-05 16:19:00,46.4,37.6,29.96,WSW,248,4.7,6.9,71,0.03,,,0.03,WUHU216HW,2013-04-05 23:19:00,
2013-04-05 16:24:00,46.4,37.6,29.95,West,270,5.4,6.9,71,0.03,,,0.03,WUHU216HW,2013-04-05 23:24:00,
2013-04-05 16:29:00,46.3,37.8,29.96,WSW,248,8.5,8.5,72,0.03,,,0.03,WUHU216HW,2013-04-05 23:29:00,
2013-04-05 16:34:00,45.5,37.7,29.96,WNW,293,8.1,14.3,74,0.03,,,0.03,WUHU216HW,2013-04-05 23:34:00,
2013-04-05 16:39:00,44.3,36.5,29.96,WSW,248,3.4,10.5,74,0.04,,,0.04,WUHU216HW,2013-04-05 23:39:00,
2013-04-05 16:44:00,44.1,36.4,29.96,WSW,248,4.7,6.7,74,0.04,,,0.04,WUHU216HW,2013-04-05 23:44:00,
2013-04-05 16:49:00,43.9,36.5,29.95,WSW,248,5.4,5.4,75,0.04,,,0.04,WUHU216HW,2013-04-05 23:49:00,
2013-04-05 16:54:00,43.7,36.3,29.96,WSW,248,4.7,5.4,75,0.03,,,0.04,WUHU216HW,2013-04-05 23:54:00,
2013-04-05 16:59:00,43.7,36.3,29.96,West,270,4.7,8.5,75,0.02,,,0.04,WUHU216HW,2013-04-05 23:59:00,
2013-04-05 17:04:00,43.6,36.2,29.96,WSW,248,3.4,6.9,75,0.01,,,0.04,WUHU216HW,2013-04-06 00:04:00,
2013-04-05 17:09:00,43.6,36.5,29.95,WSW,248,2.0,4.9,76,0.01,,,0.04,WUHU216HW,2013-04-06 00:09:00,
2013-04-05 17:14:00,43.6,36.2,29.95,SW,225,1.1,5.4,75,0.01,,,0.04,WUHU216HW,2013-04-06 00:14:00,
2013-04-05 17:19:00,43.6,36.5,29.94,WSW,248,1.6,5.4,76,0.01,,,0.04,WUHU216HW,2013-04-06 00:19:00,
2013-04-05 17:24:00,43.7,36.6,29.94,SW,225,2.5,4.5,76,0.01,,,0.04,WUHU216HW,2013-04-06 00:24:00,
2013-04-05 17:30:00,43.9,37.2,29.94,SSW,203,0.9,4.3,77,0.01,,,0.04,WUHU216HW,2013-04-06 00:30:00,
2013-04-05 17:35:00,44.5,37.7,29.93,SSW,203,1.3,4.3,77,0.00,,,0.04,WUHU216HW,2013-04-06 00:35:00,
2013-04-05 17:40:00,45.0,37.9,29.94,SSW,203,3.6,3.6,76,0.00,,,0.04,WUHU216HW,2013-04-06 00:40:00,
2013-04-05 17:45:00,45.4,37.9,29.93,SSW,203,0.9,3.6,75,0.00,,,0.04,WUHU216HW,2013-04-06 00:45:00,
2013-04-05 17:50:00,45.7,38.3,29.93,SW,225,1.8,3.6,75,0.00,,,0.04,WUHU216HW,2013-04-06 00:50:00,
2013-04-05 17:55:00,45.9,38.4,29.93,SSW,203,2.5,2.9,75,0.00,,,0.04,WUHU216HW,2013-04-06 00:55:00,
2013-04-05 18:00:00,45.9,38.4,29.93,WSW,248,0.0,2.9,75,0.00,,,0.04,WUHU216HW,2013-04-06 01:00:00,
2013-04-05 18:05:00,45.9,38.4,29.93,SSW,203,0.7,2.2,75,0.00,,,0.04,WUHU216HW,2013-04-06 01:05:00,
2013-04-05 18:10:00,45.7,38.3,29.93,SW,225,0.7,2.2,75,0.00,,,0.04,WUHU216HW,2013-04-06 01:10:00,
2013-04-05 18:15:00,45.5,38.1,29.93,WSW,248,2.0,2.5,75,0.00,,,0.04,WUHU216HW,2013-04-06 01:15:00,
2013-04-05 18:20:00,45.4,37.5,29.93,West,270,4.9,5.6,74,0.00,,,0.04,WUHU216HW,2013-04-06 01:20:00,
2013-04-05 18:25:00,45.2,37.4,29.93,SW,225,1.1,5.6,74,0.00,,,0.04,WUHU216HW,2013-04-06 01:25:00,
2013-04-05 18:30:00,45.0,37.5,29.93,SSW,203,4.0,4.0,75,0.00,,,0.04,WUHU216HW,2013-04-06 01:30:00,
2013-04-05 18:35:00,45.0,37.5,29.93,SW,225,5.1,5.8,75,0.00,,,0.04,WUHU216HW,2013-04-06 01:35:00,
2013-04-05 18:40:00,44.6,37.2,29.93,SSW,203,5.4,9.2,75,0.00,,,0.04,WUHU216HW,2013-04-06 01:40:00,
2013-04-05 18:45:00,44.5,37.0,29.93,SW,225,6.7,9.2,75,0.00,,,0.04,WUHU216HW,2013-04-06 01:45:00,
2013-04-05 18:50:00,44.3,36.8,29.93,SW,225,4.0,9.2,75,0.00,,,0.04,WUHU216HW,2013-04-06 01:50:00,
2013-04-05 18:55:00,44.1,36.6,29.93,SW,225,5.4,9.2,75,0.00,,,0.04,WUHU216HW,2013-04-06 01:55:00,
2013-04-05 19:00:00,44.1,36.6,29.93,SSW,203,3.4,5.4,75,0.00,,,0.04,WUHU216HW,2013-04-06 02:00:00,
2013-04-05 19:05:00,43.9,36.8,29.92,WSW,248,2.2,4.9,76,0.00,,,0.04,WUHU216HW,2013-04-06 02:05:00,
2013-04-05 19:10:00,43.9,37.2,29.92,SW,225,1.3,4.9,77,0.00,,,0.04,WUHU216HW,2013-04-06 02:10:00,
2013-04-05 19:15:00,43.7,37.0,29.92,SW,225,1.1,2.9,77,0.00,,,0.04,WUHU216HW,2013-04-06 02:15:00,
2013-04-05 19:20:00,43.7,37.0,29.92,WSW,248,3.1,4.3,77,0.00,,,0.04,WUHU216HW,2013-04-06 02:20:00,
2013-04-05 19:26:00,43.6,36.8,29.92,SSW,203,4.3,4.7,77,0.00,,,0.04,WUHU216HW,2013-04-06 02:26:00,
2013-04-05 19:31:00,43.6,36.8,29.92,SSW,203,2.5,4.7,77,0.00,,,0.04,WUHU216HW,2013-04-06 02:31:00,
2013-04-05 19:36:00,43.6,36.8,29.92,SW,225,1.8,5.4,77,0.00,,,0.04,WUHU216HW,2013-04-06 02:36:00,
2013-04-05 19:41:00,43.4,36.6,29.92,SW,225,6.9,8.1,77,0.00,,,0.04,WUHU216HW,2013-04-06 02:41:00,
2013-04-05 19:46:00,43.2,36.8,29.92,SW,225,3.6,8.1,78,0.00,,,0.04,WUHU216HW,2013-04-06 02:46:00,
2013-04-05 19:51:00,43.2,36.5,29.91,SSW,203,6.3,7.2,77,0.00,,,0.04,WUHU216HW,2013-04-06 02:51:00,
2013-04-05 19:56:00,43.0,36.3,29.91,SW,225,4.9,7.6,77,0.00,,,0.04,WUHU216HW,2013-04-06 02:56:00,
2013-04-05 20:01:00,42.8,36.5,29.91,SW,225,3.4,7.6,78,0.00,,,0.04,WUHU216HW,2013-04-06 03:01:00,
2013-04-05 20:06:00,42.8,36.5,29.91,SW,225,3.4,5.6,78,0.00,,,0.04,WUHU216HW,2013-04-06 03:06:00,
2013-04-05 20:11:00,42.7,36.3,29.91,SSW,203,4.0,5.4,78,0.00,,,0.04,WUHU216HW,2013-04-06 03:11:00,
2013-04-05 20:16:00,42.7,36.3,29.91,South,180,2.5,5.4,78,0.00,,,0.04,WUHU216HW,2013-04-06 03:16:00,
2013-04-05 20:21:00,42.7,36.5,29.90,SSW,203,3.6,3.6,79,0.00,,,0.04,WUHU216HW,2013-04-06 03:21:00,
2013-04-05 20:26:00,42.7,36.5,29.91,South,180,3.4,4.3,79,0.00,,,0.04,WUHU216HW,2013-04-06 03:26:00,
2013-04-05 20:31:00,42.7,36.5,29.91,South,180,4.3,5.1,79,0.00,,,0.04,WUHU216HW,2013-04-06 03:31:00,
2013-04-05 20:36:00,42.7,36.5,29.91,South,180,4.5,5.4,79,0.00,,,0.04,WUHU216HW,2013-04-06 03:36:00,
2013-04-05 20:41:00,42.7,36.5,29.90,SSW,203,9.4,9.6,79,0.00,,,0.04,WUHU216HW,2013-04-06 03:41:00,
2013-04-05 20:47:00,42.5,36.1,29.90,South,180,4.3,9.6,78,0.00,,,0.04,WUHU216HW,2013-04-06 03:47:00,
2013-04-05 20:52:00,42.5,36.1,29.90,SSW,203,8.9,9.6,78,0.00,,,0.04,WUHU216HW,2013-04-06 03:52:00,
2013-04-05 20:57:00,42.5,36.1,29.90,SSW,203,5.6,9.6,78,0.00,,,0.04,WUHU216HW,2013-04-06 03:57:00,
2013-04-05 21:00:00,42.3,35.9,29.90,SW,225,7.6,9.2,78,0.00,,,0.04,WUHU216HW,2013-04-06 04:00:00,
2013-04-05 21:02:00,42.3,35.9,29.90,SSW,203,11.4,11.4,78,0.00,,,0.04,WUHU216HW,2013-04-06 04:02:00,
2013-04-05 21:07:00,42.1,35.4,29.90,South,180,5.4,11.4,77,0.00,,,0.04,WUHU216HW,2013-04-06 04:07:00,
2013-04-05 21:12:00,42.1,35.7,29.90,SW,225,6.7,10.5,78,0.00,,,0.04,WUHU216HW,2013-04-06 04:12:00,
2013-04-05 21:17:00,42.1,35.7,29.90,SW,225,5.1,9.6,78,0.00,,,0.04,WUHU216HW,2013-04-06 04:17:00,
2013-04-05 21:22:00,42.1,35.7,29.90,SW,225,4.5,9.6,78,0.00,,,0.04,WUHU216HW,2013-04-06 04:22:00,
2013-04-05 21:27:00,41.9,35.6,29.90,SW,225,4.7,8.3,78,0.00,,,0.04,WUHU216HW,2013-04-06 04:27:00,
2013-04-05 21:32:00,41.9,35.8,29.90,SW,225,3.4,10.5,79,0.00,,,0.04,WUHU216HW,2013-04-06 04:32:00,
2013-04-05 21:37:00,41.9,35.6,29.90,WSW,248,2.5,11.9,78,0.00,,,0.04,WUHU216HW,2013-04-06 04:37:00,
2013-04-05 21:42:00,41.9,35.6,29.91,SSW,203,6.9,11.9,78,0.00,,,0.04,WUHU216HW,2013-04-06 04:42:00,
2013-04-05 21:47:00,41.8,35.4,29.91,SW,225,5.1,8.3,78,0.00,,,0.04,WUHU216HW,2013-04-06 04:47:00,
2013-04-05 21:52:00,41.8,35.0,29.91,SW,225,5.1,9.4,77,0.00,,,0.04,WUHU216HW,2013-04-06 04:52:00,
2013-04-05 21:57:00,41.8,35.4,29.91,WSW,248,9.2,9.4,78,0.00,,,0.04,WUHU216HW,2013-04-06 04:57:00,
2013-04-05 22:02:00,41.8,35.4,29.91,SW,225,5.6,9.2,78,0.00,,,0.04,WUHU216HW,2013-04-06 05:02:00,
2013-04-05 22:07:00,41.8,35.0,29.91,SW,225,7.6,8.9,77,0.00,,,0.04,WUHU216HW,2013-04-06 05:07:00,
2013-04-05 22:12:00,41.8,35.4,29.91,SSW,203,8.9,8.9,78,0.00,,,0.04,WUHU216HW,2013-04-06 05:12:00,
2013-04-05 22:17:00,41.6,35.2,29.91,SSW,203,3.4,8.9,78,0.00,,,0.04,WUHU216HW,2013-04-06 05:17:00,
2013-04-05 22:22:00,41.4,35.3,29.91,WSW,248,5.8,6.9,79,0.00,,,0.04,WUHU216HW,2013-04-06 05:22:00,
2013-04-05 22:27:00,41.4,35.3,29.91,SW,225,3.8,9.4,79,0.00,,,0.04,WUHU216HW,2013-04-06 05:27:00,
2013-04-05 22:32:00,41.2,35.1,29.91,SW,225,5.8,9.4,79,0.00,,,0.04,WUHU216HW,2013-04-06 05:32:00,
2013-04-05 22:37:00,41.2,35.1,29.90,West,270,4.3,7.8,79,0.00,,,0.04,WUHU216HW,2013-04-06 05:37:00,
2013-04-05 22:42:00,41.0,34.9,29.90,SSW,203,5.6,7.6,79,0.00,,,0.04,WUHU216HW,2013-04-06 05:42:00,
2013-04-05 22:47:00,41.0,34.9,29.91,SW,225,6.3,9.2,79,0.00,,,0.04,WUHU216HW,2013-04-06 05:47:00,
2013-04-05 22:52:00,41.0,35.3,29.90,SW,225,5.4,9.2,80,0.00,,,0.04,WUHU216HW,2013-04-06 05:52:00,
2013-04-05 22:58:00,41.0,35.6,29.90,SW,225,8.9,11.2,81,0.00,,,0.04,WUHU216HW,2013-04-06 05:58:00,
2013-04-05 23:03:00,41.0,35.6,29.89,WSW,248,6.3,11.2,81,0.00,,,0.04,WUHU216HW,2013-04-06 06:03:00,
2013-04-05 23:08:00,40.9,35.5,29.89,SW,225,9.2,9.2,81,0.00,,,0.04,WUHU216HW,2013-04-06 06:08:00,
2013-04-05 23:13:00,40.7,35.6,29.89,WNW,293,9.2,9.2,82,0.00,,,0.04,WUHU216HW,2013-04-06 06:13:00,
2013-04-05 23:18:00,40.7,35.6,29.89,SW,225,9.2,12.3,82,0.00,,,0.04,WUHU216HW,2013-04-06 06:18:00,
2013-04-05 23:23:00,40.7,35.6,29.89,SW,225,6.0,12.5,82,0.00,,,0.04,WUHU216HW,2013-04-06 06:23:00,
2013-04-05 23:28:00,40.7,35.6,29.89,WSW,248,8.3,14.8,82,0.00,,,0.04,WUHU216HW,2013-04-06 06:28:00,
2013-04-05 23:33:00,40.7,35.6,29.90,SW,225,5.1,14.8,82,0.00,,,0.04,WUHU216HW,2013-04-06 06:33:00,
2013-04-05 23:38:00,40.7,35.6,29.89,SSW,203,9.2,14.3,82,0.00,,,0.04,WUHU216HW,2013-04-06 06:38:00,
2013-04-05 23:43:00,40.9,35.5,29.90,SSW,203,4.5,15.7,81,0.00,,,0.04,WUHU216HW,2013-04-06 06:43:00,
2013-04-05 23:48:00,41.0,35.6,29.90,SW,225,14.3,15.7,81,0.00,,,0.04,WUHU216HW,2013-04-06 06:48:00,
2013-04-05 23:53:00,41.2,35.7,29.90,SSW,203,3.8,14.3,81,0.00,,,0.04,WUHU216HW,2013-04-06 06:53:00,
2013-04-05 23:58:00,41.2,35.5,29.90,SW,225,2.5,9.8,80,0.00,,,0.04,WUHU216HW,2013-04-06 06:58:00,